Thunderstorms From: 25-05-2018 23:09 Until: 26-05-2018 15:00 warning for: Thunderstorms Level: Yellow info button

Although rather usual in this region, locally or potentially dangerous phenomena are expected. (such as local winds, summer thunderstorms, rising streams or high waves) Be aware and pay attention to the latest weather updates, especially if you carry out activities exposed to weather or close to a stream or shoreline. 


Meteo18 Weather Cam more information Meteo18 Weather Cam


warning for Thunderstorms more information blitzortung!


Rain radar more information rain snow radar


Visit our other weather sites:

Template documentation
and downloads

And another site



Weather Underground History page Text

Daily Summary for September 27, 2017 Units:  English    Metric   Both
« Previous Day
Next Day »
Daily Weekly Monthly Yearly Custom
  High: Low: Average:
Temperature: TemperatureC °F 10.3 °F 15 °F
Dew Point: DewpointC °F 9.8 °F 13 °F
Humidity: Humidity % 63 % 88 %
Wind Speed: WindSpeedKMH mph 0.0 mph 1 mph
Wind Gust: WindSpeedGustKMH mph - -
Wind:- - South
Pressure: PressurehPa in 1020.9 in -
Precipitation: 0.3 in    
Historical Graphs
 
 
Tabular Data for September 27, 2017
Time Temperature Dew Point Pressure Wind Wind Speed Wind Gust Humidity Rainfall Rate (Hourly)
TemperatureC °F DewpointC °F PressurehPa in Calm     Humidity % HourlyPrecipMM in
00:02 13.6 °F 13.0 °F 1022.9 in Calm     96 % 0.0 in
00:12 13.5 °F 12.9 °F 1022.9 in Calm     96 % 0.0 in
00:17 13.4 °F 12.8 °F 1022.9 in Calm     96 % 0.0 in
00:22 13.4 °F 12.8 °F 1022.9 in Calm     96 % 0.0 in
00:32 13.3 °F 12.7 °F 1022.9 in Calm     96 % 0.0 in
00:42 13.1 °F 12.5 °F 1022.9 in Calm     96 % 0.0 in
00:47 13.0 °F 12.4 °F 1022.9 in Calm     96 % 0.0 in
00:52 12.8 °F 12.2 °F 1022.9 in Calm     96 % 0.0 in
00:57 12.6 °F 12.0 °F 1022.9 in Calm     96 % 0.0 in
01:02 12.6 °F 12.0 °F 1022.9 in Calm     96 % 0.0 in
01:12 12.5 °F 11.9 °F 1022.6 in Calm     96 % 0.0 in
01:17 12.3 °F 11.7 °F 1022.9 in Calm     96 % 0.0 in
01:22 12.2 °F 11.6 °F 1022.9 in Calm     96 % 0.0 in
01:32 12.1 °F 11.5 °F 1022.9 in Calm     96 % 0.0 in
01:37 12.1 °F 11.5 °F 1022.9 in Calm     96 % 0.0 in
01:42 12.1 °F 11.5 °F 1022.9 in Calm     96 % 0.0 in
01:47 12.1 °F 11.5 °F 1022.9 in Calm     96 % 0.0 in
01:52 12.1 °F 11.5 °F 1022.9 in Calm     96 % 0.0 in
01:57 12.2 °F 11.7 °F 1022.9 in Calm     97 % 0.0 in
02:02 12.2 °F 11.7 °F 1022.9 in Calm     97 % 0.0 in
02:12 11.9 °F 11.3 °F 1022.9 in Calm     96 % 0.0 in
02:17 11.9 °F 11.3 °F 1022.9 in Calm     96 % 0.0 in
02:22 11.8 °F 11.2 °F 1022.9 in Calm     96 % 0.0 in
02:32 11.7 °F 11.2 °F 1022.6 in Calm     97 % 0.0 in
02:42 11.7 °F 11.2 °F 1022.6 in Calm     97 % 0.0 in
02:47 11.6 °F 11.0 °F 1022.6 in Calm     96 % 0.0 in
02:52 11.5 °F 11.0 °F 1022.6 in Calm     97 % 0.0 in
02:57 11.4 °F 10.8 °F 1022.9 in Calm     96 % 0.0 in
03:02 11.3 °F 10.8 °F 1022.6 in Calm     97 % 0.0 in
03:12 11.4 °F 10.9 °F 1022.6 in Calm     97 % 0.0 in
03:17 11.4 °F 10.9 °F 1022.6 in Calm     97 % 0.0 in
03:22 11.4 °F 10.9 °F 1022.6 in Calm     97 % 0.0 in
03:27 11.4 °F 10.9 °F 1022.6 in Calm     97 % 0.0 in
03:32 11.4 °F 10.9 °F 1022.6 in Calm     97 % 0.0 in
03:37 11.4 °F 10.9 °F 1022.6 in Calm     97 % 0.0 in
03:42 11.3 °F 10.8 °F 1022.6 in Calm     97 % 0.0 in
03:47 11.3 °F 10.8 °F 1022.2 in Calm     97 % 0.0 in
03:52 11.3 °F 10.8 °F 1022.6 in Calm     97 % 0.0 in
03:57 11.3 °F 10.8 °F 1022.2 in Calm     97 % 0.0 in
04:02 11.2 °F 10.7 °F 1022.6 in Calm     97 % 0.0 in
04:07 11.1 °F 10.6 °F 1022.6 in Calm     97 % 0.0 in
04:12 11.1 °F 10.6 °F 1022.6 in Calm     97 % 0.0 in
04:17 11.1 °F 10.6 °F 1022.6 in Calm     97 % 0.0 in
04:22 11.0 °F 10.5 °F 1022.2 in Calm     97 % 0.0 in
04:32 10.8 °F 10.3 °F 1022.2 in Calm     97 % 0.0 in
04:37 10.7 °F 10.2 °F 1022.2 in Calm     97 % 0.0 in
04:42 10.7 °F 10.2 °F 1022.2 in Calm     97 % 0.0 in
04:47 10.6 °F 10.1 °F 1022.2 in Calm     97 % 0.0 in
04:57 10.4 °F 9.9 °F 1022.2 in Calm     97 % 0.0 in
05:02 10.5 °F 10.0 °F 1022.2 in Calm     97 % 0.0 in
05:07 10.6 °F 10.1 °F 1022.2 in NNW 1.6 mph   97 % 0.0 in
05:12 10.8 °F 10.3 °F 1022.2 in Calm   1.6 mph 97 % 0.0 in
05:22 10.8 °F 10.3 °F 1022.2 in Calm   1.6 mph 97 % 0.3 in
05:32 10.7 °F 10.2 °F 1022.2 in Calm     97 % 0.3 in
05:42 10.6 °F 10.1 °F 1022.2 in Calm     97 % 0.3 in
05:52 10.5 °F 10.0 °F 1022.2 in Calm     97 % 0.3 in
05:57 10.5 °F 10.0 °F 1022.2 in Calm     97 % 0.3 in
06:02 10.4 °F 9.9 °F 1022.2 in Calm     97 % 0.3 in
06:12 10.3 °F 9.8 °F 1022.2 in Calm   3.2 mph 97 % 0.3 in
06:17 10.4 °F 9.9 °F 1022.2 in Calm   3.2 mph 97 % 0.3 in
06:22 10.4 °F 9.9 °F 1022.6 in Calm   3.2 mph 97 % 0.0 in
06:32 10.4 °F 9.9 °F 1022.6 in Calm   3.2 mph 97 % 0.0 in
06:37 10.3 °F 9.8 °F 1022.6 in Calm     97 % 0.0 in
06:42 10.4 °F 9.9 °F 1022.6 in Calm     97 % 0.0 in
06:47 10.4 °F 9.9 °F 1022.6 in Calm     97 % 0.0 in
06:52 10.3 °F 9.8 °F 1022.6 in Calm     97 % 0.0 in
07:02 10.3 °F 9.8 °F 1022.6 in Calm     97 % 0.0 in
07:12 10.3 °F 9.8 °F 1022.2 in Calm     97 % 0.0 in
07:17 10.3 °F 9.8 °F 1022.6 in Calm     97 % 0.0 in
07:22 10.3 °F 9.8 °F 1022.6 in Calm     97 % 0.0 in
07:32 10.4 °F 9.9 °F 1022.6 in Calm     97 % 0.0 in
07:42 10.4 °F 9.9 °F 1022.6 in Calm     97 % 0.0 in
07:52 10.5 °F 10.0 °F 1022.9 in Calm     97 % 0.0 in
07:57 10.5 °F 10.0 °F 1022.9 in Calm     97 % 0.0 in
08:02 10.5 °F 10.0 °F 1022.9 in Calm     97 % 0.0 in
08:12 10.5 °F 10.0 °F 1022.9 in Calm     97 % 0.0 in
08:17 10.5 °F 10.0 °F 1022.9 in Calm     97 % 0.0 in
08:22 10.5 °F 10.0 °F 1022.9 in Calm     97 % 0.0 in
08:32 10.6 °F 10.1 °F 1022.9 in Calm     97 % 0.0 in
08:37 10.5 °F 10.0 °F 1022.9 in Calm     97 % 0.0 in
08:42 10.6 °F 10.1 °F 1022.9 in Calm     97 % 0.0 in
08:47 10.6 °F 10.1 °F 1022.9 in Calm     97 % 0.0 in
08:52 10.6 °F 10.1 °F 1023.2 in Calm     97 % 0.0 in
09:02 10.6 °F 10.1 °F 1022.9 in Calm     97 % 0.0 in
09:07 10.6 °F 10.1 °F 1023.2 in Calm     97 % 0.0 in
09:12 10.7 °F 10.2 °F 1023.2 in Calm     97 % 0.0 in
09:17 10.9 °F 10.4 °F 1023.2 in Calm     97 % 0.0 in
09:22 11.1 °F 10.8 °F 1023.2 in Calm     98 % 0.0 in
09:32 11.3 °F 11.0 °F 1023.2 in Calm     98 % 0.0 in
09:37 11.3 °F 11.0 °F 1023.2 in Calm     98 % 0.0 in
09:42 11.3 °F 10.8 °F 1022.9 in Calm     97 % 0.0 in
09:52 11.4 °F 10.9 °F 1022.9 in Calm     97 % 0.0 in
10:02 11.6 °F 11.1 °F 1022.9 in Calm     97 % 0.0 in
10:12 11.7 °F 11.2 °F 1022.9 in Calm     97 % 0.0 in
10:17 12.0 °F 11.7 °F 1022.9 in Calm     98 % 0.0 in
10:22 12.1 °F 11.8 °F 1022.9 in Calm     98 % 0.0 in
10:32 12.2 °F 11.7 °F 1023.2 in Calm     97 % 0.0 in
10:37 12.2 °F 11.7 °F 1023.2 in Calm     97 % 0.0 in
10:42 12.3 °F 11.8 °F 1023.2 in Calm     97 % 0.0 in
10:47 12.7 °F 12.4 °F 1023.2 in Calm     98 % 0.0 in
10:52 12.8 °F 12.5 °F 1023.2 in Calm     98 % 0.0 in
10:57 12.8 °F 12.5 °F 1023.2 in Calm     98 % 0.0 in
11:02 13.1 °F 12.8 °F 1023.2 in Calm     98 % 0.0 in
11:12 13.8 °F 13.5 °F 1023.2 in Calm   6.4 mph 98 % 0.0 in
11:17 13.9 °F 13.6 °F 1023.2 in Calm   6.4 mph 98 % 0.0 in
11:22 14.0 °F 13.5 °F 1023.2 in Calm   6.4 mph 97 % 0.0 in
11:32 14.1 °F 13.6 °F 1023.2 in Calm   4.8 mph 97 % 0.0 in
11:37 14.3 °F 13.8 °F 1023.2 in Calm   4.8 mph 97 % 0.0 in
11:42 14.4 °F 13.9 °F 1023.2 in ESE 1.6 mph 4.8 mph 97 % 0.0 in
11:47 14.4 °F 13.9 °F 1023.2 in SE 1.6 mph 4.8 mph 97 % 0.0 in
11:52 14.5 °F 14.0 °F 1023.2 in East 1.6 mph 4.8 mph 97 % 0.0 in
12:02 14.9 °F 14.4 °F 1022.9 in Calm   4.8 mph 97 % 0.0 in
12:12 15.1 °F 14.6 °F 1022.9 in Calm   3.2 mph 97 % 0.0 in
12:17 15.2 °F 14.7 °F 1022.9 in SSE 3.2 mph 3.2 mph 97 % 0.0 in
12:22 15.4 °F 14.9 °F 1022.9 in ENE 1.6 mph 3.2 mph 97 % 0.0 in
12:27 15.4 °F 14.9 °F 1022.9 in East 1.6 mph 6.4 mph 97 % 0.0 in
12:32 15.6 °F 15.1 °F 1022.9 in Calm   6.4 mph 97 % 0.0 in
12:42 15.9 °F 15.4 °F 1022.6 in East 4.8 mph 4.8 mph 97 % 0.0 in
12:52 16.6 °F 16.1 °F 1022.6 in ESE 1.6 mph 4.8 mph 97 % 0.0 in
12:57 16.7 °F 16.1 °F 1022.6 in East 3.2 mph 9.7 mph 96 % 0.0 in
13:02 17.0 °F 16.4 °F 1022.6 in SSE 1.6 mph 9.7 mph 96 % 0.0 in
13:12 17.6 °F 16.5 °F 1022.6 in WNW 1.6 mph 11.3 mph 93 % 0.0 in
13:17 18.0 °F 16.7 °F 1022.2 in SE 4.8 mph 11.3 mph 92 % 0.0 in
13:22 18.4 °F 16.7 °F 1022.2 in Calm   12.9 mph 90 % 0.0 in
13:32 19.0 °F 16.2 °F 1022.2 in East 3.2 mph 12.9 mph 84 % 0.0 in
13:42 19.2 °F 16.1 °F 1022.2 in East 6.4 mph 8.0 mph 82 % 0.0 in
13:47 19.3 °F 16.0 °F 1021.9 in SE 4.8 mph 8.0 mph 81 % 0.0 in
13:52 19.4 °F 16.1 °F 1021.9 in SE 9.7 mph 11.3 mph 81 % 0.0 in
13:57 19.6 °F 15.5 °F 1021.9 in SW 3.2 mph 11.3 mph 77 % 0.0 in
14:02 19.8 °F 15.7 °F 1021.9 in SSW 1.6 mph 11.3 mph 77 % 0.0 in
14:12 19.9 °F 15.5 °F 1021.9 in SSE 4.8 mph 14.5 mph 76 % 0.0 in
14:17 19.8 °F 15.7 °F 1021.6 in SSE 4.8 mph 14.5 mph 77 % 0.0 in
14:22 20.1 °F 15.7 °F 1021.6 in SSE 1.6 mph 14.5 mph 76 % 0.0 in
14:32 20.0 °F 15.2 °F 1021.6 in ESE 9.7 mph 14.5 mph 74 % 0.0 in
14:37 19.9 °F 15.7 °F 1021.6 in Calm   14.5 mph 77 % 0.0 in
14:42 20.2 °F 15.8 °F 1021.6 in SSW 1.6 mph 14.5 mph 76 % 0.0 in
14:47 20.3 °F 15.5 °F 1021.6 in South 8.0 mph 14.5 mph 74 % 0.0 in
14:52 20.2 °F 15.2 °F 1021.6 in SSE 4.8 mph 11.3 mph 73 % 0.0 in
14:57 20.2 °F 15.4 °F 1021.6 in SSE 4.8 mph 11.3 mph 74 % 0.0 in
15:02 20.3 °F 15.5 °F 1021.6 in South 9.7 mph 11.3 mph 74 % 0.0 in
15:12 20.6 °F 16.0 °F 1021.6 in SSE 3.2 mph 9.7 mph 75 % 0.0 in
15:22 21.3 °F 16.0 °F 1021.6 in Calm   9.7 mph 72 % 0.0 in
15:32 21.1 °F 15.9 °F 1021.2 in ESE 3.2 mph 9.7 mph 72 % 0.0 in
15:42 20.9 °F 15.7 °F 1021.6 in SE 1.6 mph 9.7 mph 72 % 0.0 in
15:47 21.1 °F 15.6 °F 1021.2 in SW 8.0 mph 11.3 mph 71 % 0.0 in
15:52 21.1 °F 15.4 °F 1021.2 in SSE 4.8 mph 11.3 mph 70 % 0.0 in
15:57 20.9 °F 15.7 °F 1021.2 in East 1.6 mph 11.3 mph 72 % 0.0 in
16:02 21.0 °F 15.8 °F 1021.2 in Calm   11.3 mph 72 % 0.0 in
16:12 21.5 °F 15.3 °F 1021.2 in Calm   11.3 mph 68 % 0.0 in
16:17 21.5 °F 15.6 °F 1021.2 in SW 9.7 mph 11.3 mph 69 % 0.0 in
16:22 21.5 °F 15.6 °F 1021.2 in SSW 1.6 mph 8.0 mph 69 % 0.0 in
16:32 21.7 °F 15.5 °F 1020.9 in SW 6.4 mph 9.7 mph 68 % 0.0 in
16:37 21.7 °F 15.3 °F 1020.9 in SE 1.6 mph 9.7 mph 67 % 0.0 in
16:42 21.8 °F 15.6 °F 1020.9 in SW 11.3 mph 11.3 mph 68 % 0.0 in
16:47 22.0 °F 15.1 °F 1020.9 in Calm   9.7 mph 65 % 0.0 in
16:52 22.2 °F 15.5 °F 1020.9 in SE 1.6 mph 11.3 mph 66 % 0.0 in
16:57 22.3 °F 15.4 °F 1020.9 in SSW 3.2 mph 11.3 mph 65 % 0.0 in
17:02 22.2 °F 15.1 °F 1020.9 in Calm   11.3 mph 64 % 0.0 in
17:12 22.3 °F 15.4 °F 1020.9 in SW 4.8 mph 9.7 mph 65 % 0.0 in
17:17 22.4 °F 15.0 °F 1020.9 in SW 3.2 mph 8.0 mph 63 % 0.0 in
17:22 22.3 °F 14.9 °F 1020.9 in SSW 3.2 mph 8.0 mph 63 % 0.0 in
17:27 22.3 °F 14.9 °F 1020.9 in Calm   8.0 mph 63 % 0.0 in
17:32 22.6 °F 15.4 °F 1020.9 in SSW 3.2 mph 8.0 mph 64 % 0.0 in
17:37 22.4 °F 15.0 °F 1020.9 in East 1.6 mph 6.4 mph 63 % 0.0 in
17:42 21.9 °F 15.0 °F 1020.9 in Calm   6.4 mph 65 % 0.0 in
17:47 21.6 °F 14.7 °F 1020.9 in ESE 1.6 mph 4.8 mph 65 % 0.0 in
17:52 21.4 °F 15.0 °F 1020.9 in Calm   4.8 mph 67 % 0.0 in
18:02 21.7 °F 15.1 °F 1020.9 in Calm   3.2 mph 66 % 0.0 in
18:12 21.6 °F 15.0 °F 1021.2 in SSE 1.6 mph 3.2 mph 66 % 0.0 in
18:17 21.6 °F 15.2 °F 1021.2 in Calm   3.2 mph 67 % 0.0 in
18:22 21.7 °F 15.3 °F 1021.2 in Calm   3.2 mph 67 % 0.0 in
18:32 21.8 °F 15.2 °F 1020.9 in Calm   1.6 mph 66 % 0.0 in
18:37 21.6 °F 15.2 °F 1020.9 in Calm   1.6 mph 67 % 0.0 in
18:42 21.3 °F 15.4 °F 1020.9 in ENE 1.6 mph 3.2 mph 69 % 0.0 in
18:47 20.9 °F 15.2 °F 1020.9 in East 1.6 mph 3.2 mph 70 % 0.0 in
18:57 20.4 °F 15.4 °F 1020.9 in East 3.2 mph 4.8 mph 73 % 0.0 in
19:07 20.0 °F 15.2 °F 1020.9 in East 4.8 mph 4.8 mph 74 % 0.0 in
19:12 19.8 °F 15.0 °F 1020.9 in East 4.8 mph 4.8 mph 74 % 0.0 in
19:17 19.7 °F 14.9 °F 1021.2 in East 1.6 mph 6.4 mph 74 % 0.0 in
19:22 19.6 °F 15.0 °F 1021.2 in Calm   6.4 mph 75 % 0.0 in
19:27 19.4 °F 14.9 °F 1021.2 in Calm   4.8 mph 75 % 0.0 in
19:32 19.2 °F 14.9 °F 1021.2 in Calm   4.8 mph 76 % 0.0 in
19:42 18.7 °F 14.8 °F 1021.2 in Calm   1.6 mph 78 % 0.0 in
19:47 18.4 °F 14.9 °F 1021.2 in Calm     80 % 0.0 in
19:52 18.2 °F 14.7 °F 1021.2 in Calm     80 % 0.0 in
19:57 18.1 °F 14.8 °F 1021.2 in Calm     81 % 0.0 in
20:02 17.8 °F 14.7 °F 1021.2 in Calm     82 % 0.0 in
20:07 17.7 °F 14.6 °F 1021.6 in WNW 1.6 mph 1.6 mph 82 % 0.0 in
20:12 17.3 °F 14.6 °F 1021.2 in Calm   1.6 mph 84 % 0.0 in
20:17 17.2 °F 14.5 °F 1021.2 in Calm   1.6 mph 84 % 0.0 in
20:22 17.3 °F 14.6 °F 1021.2 in North 1.6 mph 1.6 mph 84 % 0.0 in
20:32 17.2 °F 14.5 °F 1021.2 in Calm   3.2 mph 84 % 0.0 in
20:37 17.2 °F 14.5 °F 1021.2 in Calm   1.6 mph 84 % 0.0 in
20:42 16.9 °F 14.4 °F 1021.6 in NNW 1.6 mph 1.6 mph 85 % 0.0 in
20:47 16.5 °F 14.1 °F 1021.6 in NNW 1.6 mph 1.6 mph 86 % 0.0 in
20:52 16.3 °F 14.1 °F 1021.6 in NW 3.2 mph 3.2 mph 87 % 0.0 in
20:57 16.2 °F 14.2 °F 1021.6 in Calm   3.2 mph 88 % 0.0 in
21:02 16.0 °F 14.2 °F 1021.6 in Calm   3.2 mph 89 % 0.0 in
21:07 16.0 °F 14.2 °F 1021.6 in Calm   3.2 mph 89 % 0.0 in
21:12 15.9 °F 14.1 °F 1021.6 in NW 3.2 mph 3.2 mph 89 % 0.0 in
21:17 15.7 °F 14.1 °F 1021.6 in NW 1.6 mph 1.6 mph 90 % 0.0 in
21:22 15.6 °F 14.1 °F 1021.6 in NW 3.2 mph 3.2 mph 91 % 0.0 in
21:27 15.5 °F 14.2 °F 1021.6 in NW 1.6 mph 3.2 mph 92 % 0.0 in
21:32 15.5 °F 14.2 °F 1021.9 in NW 1.6 mph 3.2 mph 92 % 0.0 in
21:42 15.4 °F 14.1 °F 1021.6 in Calm   3.2 mph 92 % 0.0 in
21:47 15.4 °F 13.9 °F 1021.9 in ENE 9.7 mph 9.7 mph 91 % 0.0 in
21:52 15.3 °F 14.0 °F 1021.9 in NE 1.6 mph 1.6 mph 92 % 0.0 in
21:57 15.5 °F 14.0 °F 1021.9 in Calm   11.3 mph 91 % 0.0 in
22:02 15.4 °F 13.8 °F 1021.9 in Calm   11.3 mph 90 % 0.0 in
22:12 15.4 °F 13.9 °F 1021.9 in Calm   4.8 mph 91 % 0.0 in
22:17 15.4 °F 13.8 °F 1021.9 in Calm   1.6 mph 90 % 0.0 in
22:22 15.4 °F 13.9 °F 1021.9 in Calm   1.6 mph 91 % 0.0 in
22:27 15.4 °F 13.8 °F 1021.9 in North 1.6 mph 1.6 mph 90 % 0.0 in
22:32 15.4 °F 13.8 °F 1021.9 in Calm   1.6 mph 90 % 0.0 in
22:37 15.4 °F 13.9 °F 1021.9 in Calm   3.2 mph 91 % 0.0 in
22:42 15.4 °F 13.8 °F 1021.9 in Calm   3.2 mph 90 % 0.0 in
22:47 15.3 °F 13.7 °F 1021.9 in Calm   1.6 mph 90 % 0.0 in
22:52 15.3 °F 13.8 °F 1021.9 in Calm   1.6 mph 91 % 0.0 in
22:57 15.2 °F 13.7 °F 1021.9 in Calm   1.6 mph 91 % 0.0 in
23:02 15.0 °F 13.7 °F 1021.9 in Calm   1.6 mph 92 % 0.0 in
23:07 14.9 °F 13.6 °F 1021.9 in Calm   1.6 mph 92 % 0.0 in
23:12 14.8 °F 13.5 °F 1021.9 in NW 1.6 mph 1.6 mph 92 % 0.0 in
23:17 14.8 °F 13.7 °F 1021.9 in Calm   1.6 mph 93 % 0.0 in
23:22 14.7 °F 13.4 °F 1021.9 in Calm   1.6 mph 92 % 0.0 in
23:32 14.7 °F 13.6 °F 1021.9 in Calm   3.2 mph 93 % 0.0 in
23:37 14.7 °F 13.4 °F 1021.9 in Calm   3.2 mph 92 % 0.0 in
23:42 14.7 °F 13.4 °F 1021.9 in Calm   3.2 mph 92 % 0.0 in
23:47 14.8 °F 13.5 °F 1021.9 in Calm   3.2 mph 92 % 0.0 in
23:52 14.8 °F 13.5 °F 1021.9 in Calm   3.2 mph 92 % 0.0 in
23:57 14.8 °F 13.3 °F 1021.9 in Calm   1.6 mph 91 % 0.0 in
Meteo18
Compliments of Weather Underground - 4 mb

Script developed by  Jim McMurry - jmcmurry@mwt.net Adapted for the template by  Wim van der Kuil - Leuven-Template.eu

You find our weather info also at:

European Weather Network

Weather Underground

Equipment we use:

Weather-station
Davis Vue

Weather-program
Meteobridge

Weather-server
Raspberry PI 2 B+

Provider
1 and 1

Davis Vue

Meteobridge

Raspberry PI 2 B+

1 and 1